aviador You're here:

KMGW Decoded Metar

MORGANTOWN in WV, USA
Report Time2017-09-20 19:53:00
UTC Time2017-09-20 20:03:29
Flight Rules vfr VFR
Wind350° at 05 kt
W.Decomp.*RWY 36: 5.0 kt HW 0.1 kt LCW
W.Rank350° ranks 12
Current wind is below 350° avg. (5.9)
Visibility9999 m
Phenomena:N/A
Clouds:Scattered 035 Hf
Expected CloudBase > 3,600 ft AGL from Temp-Dew spread
CeilingNone
Temp27°C (ISA +14)
Dew Point18°C (58% RH)
Heat Index27.9°C
QNH1017 hPa
Density Alt3,048 ft
Elevation1,240 ft
Report Wrong Elevation
Raw Report
METAR KMGW 201953Z 35005KT 10SM SCT035 27/18 A3003 RMK AO2 RAE09 SLP159
SM BUILDUPS ALQDS P0000 T02670178=

Extra information for KMGW:More info

Metar Taf Metar & Taf Last 4 Metars F.Rules Stats Wind Profile Meteogram Temp Stats Airport Information Weather charts Add Link Nearby VenuesMetar ALERT Operation Metar Decoded Social comments

AIRNAV info for KMGW